Terminal Aerodrome Forecast
Issued by NWS Memphis, TN

Home | Current Version | Previous Version | Text Only | Print | Product List | Glossary On
Versions: 1 2 3 4 5 6 7 8 9 10 11 12 13 14 15 16 17 18 19 20 21 22 23 24 25 26 27 28
000
FTUS44 KMEG 281126
TAFMEM
TAF
KMEM 281126Z 2812/2912 14004KT P6SM OVC080
     FM281500 10006KT P6SM VCSH OVC050
      TEMPO 2815/2819 6SM -RA BR
     FM282200 11005KT P6SM OVC050
     FM290200 12006KT P6SM OVC250=

USA.gov is the U.S. government's official web portal to all federal, state and local government web resources and services.